createdAt,value
2019-04-26T00:00:47.341Z,63.00
2019-04-26T00:03:20.937Z,63.16
2019-04-26T00:05:51.302Z,63.07
2019-04-26T00:08:22.298Z,63.05
2019-04-26T00:11:14.033Z,63.22
2019-04-26T00:14:05.202Z,62.99
2019-04-26T00:16:43.707Z,62.88
2019-04-26T00:19:13.863Z,62.74
2019-04-26T00:21:44.393Z,62.55
2019-04-26T00:24:15.270Z,62.69
2019-04-26T00:26:45.515Z,62.86
2019-04-26T00:29:15.617Z,62.95
2019-04-26T00:31:45.724Z,62.97
2019-04-26T00:34:15.813Z,62.93
2019-04-26T00:36:46.213Z,62.76
2019-04-26T00:39:16.227Z,62.59
2019-04-26T00:41:46.518Z,62.44
2019-04-26T00:44:16.701Z,62.32
2019-04-26T00:46:46.835Z,62.26
2019-04-26T00:49:17.145Z,62.08
2019-04-26T00:51:47.357Z,61.89
2019-04-26T00:54:17.975Z,61.99
2019-04-26T00:56:48.166Z,62.23
2019-04-26T00:59:18.435Z,62.40
2019-04-26T01:01:52.216Z,62.34
2019-04-26T01:04:23.007Z,62.18
2019-04-26T01:06:54.760Z,62.12
2019-04-26T01:09:25.680Z,62.26
2019-04-26T01:11:55.820Z,62.44
2019-04-26T01:14:26.255Z,62.32
2019-04-26T01:16:56.437Z,62.31
2019-04-26T01:19:26.628Z,62.65
2019-04-26T01:21:58.545Z,62.75
2019-04-26T01:24:28.726Z,62.80
2019-04-26T01:26:58.797Z,62.74
2019-04-26T01:29:28.919Z,62.79
2019-04-26T01:32:04.440Z,62.74
2019-04-26T01:34:34.565Z,62.67
2019-04-26T01:37:04.706Z,62.76
2019-04-26T01:39:36.476Z,62.67
2019-04-26T01:42:15.773Z,62.60
2019-04-26T01:44:54.011Z,62.37
2019-04-26T01:47:24.321Z,62.17
2019-04-26T01:49:54.356Z,61.80
2019-04-26T01:52:27.632Z,61.63
2019-04-26T01:54:57.734Z,61.64
2019-04-26T01:57:27.834Z,61.45
2019-04-26T02:00:02.770Z,61.36
2019-04-26T02:02:49.897Z,61.06
2019-04-26T02:05:23.956Z,60.88
2019-04-26T02:07:54.304Z,61.07
2019-04-26T02:10:25.206Z,61.33
2019-04-26T02:12:55.319Z,61.54
2019-04-26T02:15:27.247Z,61.77
2019-04-26T02:17:57.318Z,61.83
2019-04-26T02:21:30.703Z,62.07
2019-04-26T02:24:19.464Z,62.30
2019-04-26T02:26:49.491Z,62.48
2019-04-26T02:29:25.285Z,62.61
2019-04-26T02:32:01.459Z,62.58
2019-04-26T02:34:33.192Z,62.70
2019-04-26T02:37:03.944Z,62.76
2019-04-26T02:39:39.539Z,62.95
2019-04-26T02:42:20.603Z,63.27
2019-04-26T02:45:04.045Z,63.43
2019-04-26T02:47:47.463Z,63.34
2019-04-26T02:50:22.373Z,63.18
2019-04-26T02:52:59.042Z,63.01
2019-04-26T02:56:11.471Z,63.19
2019-04-26T02:58:46.416Z,63.26
2019-04-26T03:01:16.490Z,63.36
2019-04-26T03:03:46.545Z,63.42
2019-04-26T03:06:16.584Z,63.61
2019-04-26T03:08:47.370Z,63.64
2019-04-26T03:11:19.536Z,63.74
2019-04-26T03:13:54.609Z,63.84
2019-04-26T03:16:53.360Z,63.95
2019-04-26T03:19:36.263Z,63.96
2019-04-26T03:22:12.401Z,64.14
2019-04-26T03:24:49.262Z,64.12
2019-04-26T03:27:41.859Z,64.11
2019-04-26T03:30:21.477Z,64.19
2019-04-26T03:33:26.458Z,64.43
2019-04-26T03:36:23.649Z,64.59
2019-04-26T03:39:14.363Z,64.64
2019-04-26T03:42:33.168Z,64.37
2019-04-26T03:45:37.136Z,64.33
2019-04-26T03:48:23.841Z,64.20
2019-04-26T03:51:03.798Z,64.12
2019-04-26T03:53:46.141Z,63.95
2019-04-26T03:56:43.647Z,63.99
2019-04-26T03:59:44.232Z,63.97
2019-04-26T04:02:29.838Z,63.97
2019-04-26T04:05:14.666Z,63.93
2019-04-26T04:07:49.367Z,63.93
2019-04-26T04:10:20.507Z,64.09
2019-04-26T04:13:08.978Z,64.20
2019-04-26T04:15:44.896Z,64.19
2019-04-26T04:18:19.802Z,64.19
2019-04-26T04:21:31.390Z,64.17
2019-04-26T04:24:12.464Z,64.09
2019-04-26T04:27:06.342Z,64.01
2019-04-26T04:30:06.761Z,63.97
2019-04-26T04:33:10.486Z,63.97
2019-04-26T04:35:49.267Z,64.07
2019-04-26T04:38:33.972Z,64.14
2019-04-26T04:41:26.610Z,64.02
2019-04-26T04:44:09.214Z,63.97
2019-04-26T04:47:24.627Z,64.04
2019-04-26T04:50:00.002Z,63.97
2019-04-26T04:53:06.824Z,64.09
2019-04-26T04:55:48.394Z,64.03
2019-04-26T04:58:21.094Z,64.01
2019-04-26T05:01:52.515Z,64.15
2019-04-26T05:04:30.103Z,64.17
2019-04-26T05:07:47.250Z,64.05
2019-04-26T05:10:37.817Z,64.09
2019-04-26T05:13:24.421Z,64.22
2019-04-26T05:16:35.909Z,64.41
2019-04-26T05:20:01.981Z,64.56
2019-04-26T05:23:15.362Z,64.58
2019-04-26T05:26:29.958Z,64.27
2019-04-26T05:30:03.659Z,64.28
2019-04-26T05:32:58.699Z,64.87
2019-04-26T05:35:57.351Z,65.62
2019-04-26T05:38:51.203Z,65.74
2019-04-26T05:42:01.857Z,65.50
2019-04-26T05:45:08.168Z,65.40
2019-04-26T05:48:08.409Z,65.16
2019-04-26T05:51:32.809Z,64.94
2019-04-26T05:54:44.680Z,64.97
2019-04-26T05:57:51.142Z,64.59
2019-04-26T06:00:43.489Z,64.57
2019-04-26T06:03:32.953Z,64.60
2019-04-26T06:06:29.554Z,64.57
2019-04-26T06:09:44.186Z,64.46
2019-04-26T06:12:23.346Z,64.50
2019-04-26T06:15:18.631Z,64.52
2019-04-26T06:18:19.560Z,64.51
2019-04-26T06:21:10.419Z,64.49
2019-04-26T06:23:44.053Z,64.47
2019-04-26T06:27:14.264Z,64.39
2019-04-26T06:29:56.568Z,64.32
2019-04-26T06:32:55.949Z,64.32
2019-04-26T06:35:20.382Z,64.33
2019-04-26T06:38:56.326Z,64.34
2019-04-26T06:42:07.829Z,64.40
2019-04-26T06:45:45.164Z,64.46
2019-04-26T06:48:26.941Z,64.71
2019-04-26T06:51:08.029Z,64.75
2019-04-26T06:53:48.041Z,64.65
2019-04-26T06:56:57.405Z,64.94
2019-04-26T07:00:06.634Z,64.65
2019-04-26T07:02:46.967Z,64.84
2019-04-26T07:05:20.558Z,65.32
2019-04-26T07:08:29.355Z,65.25
2019-04-26T07:11:54.960Z,65.14
2019-04-26T07:15:05.751Z,65.18
2019-04-26T07:17:57.884Z,65.14
2019-04-26T07:20:39.099Z,64.79
2019-04-26T07:24:18.193Z,64.83
2019-04-26T07:27:25.512Z,65.09
2019-04-26T07:30:21.939Z,65.24
2019-04-26T07:33:13.869Z,65.34
2019-04-26T07:35:50.690Z,65.41
2019-04-26T07:39:20.000Z,65.44
2019-04-26T07:42:28.803Z,65.33
2019-04-26T07:45:21.903Z,65.05
2019-04-26T07:48:18.924Z,65.18
2019-04-26T07:51:48.193Z,65.33
2019-04-26T07:54:47.802Z,65.22
2019-04-26T07:57:52.457Z,65.05
2019-04-26T08:00:30.462Z,64.89
2019-04-26T08:03:10.839Z,64.85
2019-04-26T08:05:45.138Z,64.74
2019-04-26T08:08:17.256Z,64.84
2019-04-26T08:11:18.745Z,64.69
2019-04-26T08:14:27.760Z,64.69
2019-04-26T08:17:30.828Z,64.69
2019-04-26T08:21:02.416Z,64.49
2019-04-26T08:23:41.320Z,64.49
2019-04-26T08:26:11.248Z,64.50
2019-04-26T08:28:41.233Z,64.50
2019-04-26T08:31:15.427Z,64.49
2019-04-26T08:33:49.670Z,64.33
2019-04-26T08:36:23.204Z,64.13
2019-04-26T08:38:52.525Z,64.13
2019-04-26T08:41:23.639Z,64.29
2019-04-26T08:44:11.389Z,64.10
2019-04-26T08:47:01.125Z,63.86
2019-04-26T08:49:48.251Z,63.93
2019-04-26T08:52:18.871Z,64.08
2019-04-26T08:54:57.838Z,63.99
2019-04-26T08:57:30.230Z,63.81
2019-04-26T09:00:00.454Z,63.97
2019-04-26T09:02:56.610Z,63.90
2019-04-26T09:05:52.239Z,63.90
2019-04-26T09:08:24.715Z,63.61
2019-04-26T09:10:54.738Z,63.37
2019-04-26T09:13:25.313Z,63.37
2019-04-26T09:16:09.313Z,63.40
2019-04-26T09:18:43.671Z,63.38
2019-04-26T09:21:13.363Z,63.36
2019-04-26T09:24:00.563Z,63.27
2019-04-26T09:26:35.452Z,63.36
2019-04-26T09:29:30.303Z,63.26
2019-04-26T09:32:16.777Z,63.24
2019-04-26T09:34:47.946Z,63.19
2019-04-26T09:37:18.135Z,63.26
2019-04-26T09:39:48.217Z,63.26
2019-04-26T09:42:39.327Z,63.08
2019-04-26T09:45:24.538Z,63.05
2019-04-26T09:47:59.701Z,63.23
2019-04-26T09:50:42.386Z,63.22
2019-04-26T09:53:12.490Z,63.33
2019-04-26T09:55:42.527Z,63.05
2019-04-26T09:58:12.545Z,62.91
2019-04-26T10:00:44.051Z,62.80
2019-04-26T10:03:14.464Z,62.85
2019-04-26T10:05:44.501Z,62.71
2019-04-26T10:08:14.636Z,62.72
2019-04-26T10:10:44.810Z,62.74
2019-04-26T10:13:33.826Z,62.80
2019-04-26T10:16:11.698Z,62.68
2019-04-26T10:18:44.694Z,62.72
2019-04-26T10:21:14.784Z,62.71
2019-04-26T10:23:44.807Z,62.42
2019-04-26T10:26:14.922Z,61.91
2019-04-26T10:28:46.795Z,61.78
2019-04-26T10:31:17.269Z,61.87
2019-04-26T10:33:47.391Z,62.04
2019-04-26T10:36:17.427Z,62.08
2019-04-26T10:38:47.448Z,62.30
2019-04-26T10:41:17.607Z,61.87
2019-04-26T10:43:47.646Z,61.90
2019-04-26T10:46:17.827Z,61.89
2019-04-26T10:48:49.809Z,61.59
2019-04-26T10:51:25.570Z,61.29
2019-04-26T10:54:06.001Z,61.29
2019-04-26T10:56:40.181Z,61.32
2019-04-26T10:59:27.630Z,60.84
2019-04-26T11:01:57.649Z,61.23
2019-04-26T11:04:27.674Z,61.12
2019-04-26T11:06:58.113Z,60.86
2019-04-26T11:09:29.423Z,60.77
2019-04-26T11:11:59.549Z,60.68
2019-04-26T11:14:29.659Z,60.55
2019-04-26T11:16:59.693Z,60.65
2019-04-26T11:19:31.944Z,60.45
2019-04-26T11:22:01.426Z,60.37
2019-04-26T11:24:31.454Z,60.33
2019-04-26T11:27:01.515Z,59.44
2019-04-26T11:29:31.547Z,58.97
2019-04-26T11:32:02.698Z,59.03
2019-04-26T11:34:33.270Z,59.16
2019-04-26T11:37:03.750Z,58.94
2019-04-26T11:39:36.533Z,60.14
2019-04-26T11:42:08.059Z,60.14
2019-04-26T11:44:38.343Z,59.64
2019-04-26T11:47:08.409Z,59.28
2019-04-26T11:49:41.631Z,59.33
2019-04-26T11:52:10.226Z,58.72
2019-04-26T11:54:40.312Z,58.24
2019-04-26T11:57:12.199Z,58.32
2019-04-26T11:59:42.106Z,58.35
2019-04-26T12:02:15.904Z,58.02
2019-04-26T12:05:12.019Z,57.87
2019-04-26T12:07:50.406Z,57.53
2019-04-26T12:10:20.678Z,57.89
2019-04-26T12:12:51.811Z,57.42
2019-04-26T12:15:30.132Z,57.45
2019-04-26T12:17:58.799Z,57.72
2019-04-26T12:20:28.156Z,57.72
2019-04-26T12:22:58.434Z,57.48
2019-04-26T12:25:31.012Z,57.07
2019-04-26T12:28:01.896Z,57.31
2019-04-26T12:30:31.972Z,56.79
2019-04-26T12:33:02.027Z,57.17
2019-04-26T12:35:32.153Z,57.31
2019-04-26T12:38:02.227Z,57.04
2019-04-26T12:40:32.417Z,56.45
2019-04-26T12:43:02.422Z,55.56
2019-04-26T12:45:51.515Z,55.43
2019-04-26T12:48:22.737Z,54.57
2019-04-26T12:50:52.777Z,54.84
2019-04-26T12:53:26.692Z,54.00
2019-04-26T12:55:58.153Z,54.07
2019-04-26T12:58:26.318Z,53.86
2019-04-26T13:00:56.634Z,53.70
2019-04-26T13:03:29.184Z,53.26
2019-04-26T13:05:59.136Z,53.34
2019-04-26T13:08:29.245Z,53.55
2019-04-26T13:11:18.301Z,54.10
2019-04-26T13:13:55.257Z,53.62
2019-04-26T13:16:44.279Z,52.45
2019-04-26T13:19:16.071Z,52.67
2019-04-26T13:21:46.802Z,52.54
2019-04-26T13:24:16.877Z,52.92
2019-04-26T13:26:46.935Z,52.49
2019-04-26T13:29:16.991Z,52.21
2019-04-26T13:31:47.051Z,51.69
2019-04-26T13:34:17.110Z,51.21
2019-04-26T13:36:47.237Z,51.07
2019-04-26T13:39:20.391Z,50.61
2019-04-26T13:42:01.471Z,50.45
2019-04-26T13:44:40.833Z,50.12
2019-04-26T13:47:29.878Z,50.22
2019-04-26T13:50:09.250Z,49.64
2019-04-26T13:52:39.302Z,48.77
2019-04-26T13:55:09.470Z,48.39
2019-04-26T13:57:40.292Z,48.56
2019-04-26T14:00:13.073Z,47.65
2019-04-26T14:02:43.182Z,47.67
2019-04-26T14:05:15.289Z,46.91
2019-04-26T14:07:44.956Z,47.43
2019-04-26T14:10:15.017Z,46.25
2019-04-26T14:12:46.245Z,45.04
2019-04-26T14:15:16.802Z,45.15
2019-04-26T14:17:46.874Z,46.64
2019-04-26T14:20:19.165Z,46.93
2019-04-26T14:22:57.784Z,47.25
2019-04-26T14:25:32.647Z,46.82
2019-04-26T14:28:02.669Z,46.66
2019-04-26T14:30:32.784Z,47.09
2019-04-26T14:33:02.903Z,46.41
2019-04-26T14:35:32.966Z,46.04
2019-04-26T14:38:03.114Z,46.97
2019-04-26T14:40:33.184Z,47.22
2019-04-26T14:43:07.033Z,46.96
2019-04-26T14:45:36.289Z,46.89
2019-04-26T14:48:19.834Z,47.14
2019-04-26T14:50:38.531Z,46.28
2019-04-26T14:53:08.599Z,46.56
2019-04-26T14:55:38.666Z,46.32
2019-04-26T14:58:08.742Z,46.57
2019-04-26T15:00:40.478Z,46.95
2019-04-26T15:03:20.932Z,47.25
2019-04-26T15:06:00.166Z,47.84
2019-04-26T15:08:32.084Z,47.55
2019-04-26T15:11:04.261Z,47.37
2019-04-26T15:13:36.173Z,47.47
2019-04-26T15:16:10.229Z,47.98
2019-04-26T15:18:38.861Z,47.97
2019-04-26T15:21:08.907Z,47.74
2019-04-26T15:23:39.085Z,47.23
2019-04-26T15:26:09.225Z,46.98
2019-04-26T15:28:39.278Z,47.05
2019-04-26T15:31:09.405Z,47.67
2019-04-26T15:33:42.715Z,47.83
2019-04-26T15:36:14.475Z,48.05
2019-04-26T15:38:45.014Z,48.37
2019-04-26T15:41:34.072Z,49.16
2019-04-26T15:44:20.234Z,49.76
2019-04-26T15:47:13.168Z,50.27
2019-04-26T15:50:05.561Z,49.91
2019-04-26T15:52:35.954Z,50.06
2019-04-26T15:55:06.215Z,50.03
2019-04-26T15:57:36.214Z,50.04
2019-04-26T16:00:06.341Z,50.01
2019-04-26T16:02:37.418Z,49.72
2019-04-26T16:05:09.365Z,50.17
2019-04-26T16:07:39.416Z,49.77
2019-04-26T16:10:09.469Z,49.77
2019-04-26T16:12:39.494Z,49.79
2019-04-26T16:15:11.506Z,50.27
2019-04-26T16:17:41.433Z,50.39
2019-04-26T16:20:11.925Z,50.58
2019-04-26T16:22:43.134Z,50.58
2019-04-26T16:25:13.240Z,51.04
2019-04-26T16:27:43.273Z,51.36
2019-04-26T16:30:32.573Z,52.05
2019-04-26T16:33:06.875Z,51.95
2019-04-26T16:35:37.086Z,52.39
2019-04-26T16:38:24.890Z,52.39
2019-04-26T16:40:55.301Z,52.30
2019-04-26T16:45:57.173Z,52.36
2019-04-26T16:48:27.252Z,52.74
2019-04-26T16:51:01.027Z,53.27
2019-04-26T16:53:43.766Z,53.44
2019-04-26T16:56:03.266Z,53.44
2019-04-26T16:58:38.103Z,53.42
2019-04-26T17:01:10.252Z,53.65
2019-04-26T17:03:38.097Z,53.91
2019-04-26T17:06:13.742Z,54.99
2019-04-26T17:08:49.127Z,55.16
2019-04-26T17:09:37.223Z,52.30
2019-04-26T17:11:14.063Z,55.96
2019-04-26T17:16:05.512Z,57.14
2019-04-26T17:18:35.829Z,57.56
2019-04-26T17:21:06.122Z,57.77
2019-04-26T17:24:13.482Z,58.28
2019-04-26T17:26:47.987Z,58.63
2019-04-26T17:29:18.097Z,59.04
2019-04-26T17:31:48.253Z,59.37
2019-04-26T17:34:18.336Z,60.01
2019-04-26T17:36:50.392Z,60.08
2019-04-26T17:39:22.318Z,60.50
2019-04-26T17:41:54.359Z,60.50
2019-04-26T17:44:26.450Z,61.12
2019-04-26T17:46:59.502Z,61.17
2019-04-26T17:49:28.979Z,61.31
2019-04-26T17:52:01.906Z,61.56
2019-04-26T17:54:45.934Z,62.25
2019-04-26T17:57:04.467Z,62.66
2019-04-26T17:59:36.817Z,62.95
2019-04-26T18:02:19.538Z,63.02
2019-04-26T18:04:40.825Z,63.37
2019-04-26T18:07:34.641Z,63.59
2019-04-26T18:09:46.497Z,63.72
2019-04-26T18:12:14.569Z,63.83
2019-04-26T18:14:44.706Z,63.79
2019-04-26T18:17:24.982Z,63.75
2019-04-26T18:20:07.834Z,64.08
2019-04-26T18:22:50.037Z,64.37
2019-04-26T18:25:20.151Z,64.75
2019-04-26T18:27:50.238Z,65.08
2019-04-26T18:30:20.320Z,65.28
2019-04-26T18:32:50.458Z,65.45
2019-04-26T18:35:20.596Z,65.32
2019-04-26T18:37:50.673Z,65.22
2019-04-26T18:40:23.119Z,65.61
2019-04-26T18:42:53.072Z,65.94
2019-04-26T18:45:28.873Z,66.21
2019-04-26T18:48:01.076Z,66.10
2019-04-26T18:50:28.426Z,65.93
2019-04-26T18:53:20.236Z,66.22
2019-04-26T18:55:50.993Z,65.89
2019-04-26T18:58:21.032Z,65.87
2019-04-26T19:00:51.057Z,65.97
2019-04-26T19:03:26.199Z,65.99
2019-04-26T19:05:54.188Z,65.84
2019-04-26T19:08:27.188Z,65.63
2019-04-26T19:11:01.158Z,65.62
2019-04-26T19:13:56.596Z,65.67
2019-04-26T19:16:46.392Z,65.47
2019-04-26T19:19:36.456Z,64.92
2019-04-26T19:22:09.550Z,64.05
2019-04-26T19:24:38.764Z,63.46
2019-04-26T19:27:08.901Z,62.63
2019-04-26T19:29:39.082Z,62.40
2019-04-26T19:32:09.251Z,61.78
2019-04-26T19:34:42.144Z,61.42
2019-04-26T19:37:13.113Z,61.18
2019-04-26T19:39:43.229Z,61.15
2019-04-26T19:42:14.910Z,60.35
2019-04-26T19:44:44.970Z,59.84
2019-04-26T19:47:35.452Z,59.41
2019-04-26T19:50:21.927Z,59.03
2019-04-26T19:53:22.985Z,58.93
2019-04-26T19:56:09.320Z,58.56
2019-04-26T19:58:39.552Z,58.24
2019-04-26T20:01:09.614Z,58.07
2019-04-26T20:03:41.476Z,58.13
2019-04-26T20:06:14.134Z,57.78
2019-04-26T20:08:45.895Z,57.71
2019-04-26T20:11:18.817Z,57.79
2019-04-26T20:13:51.823Z,57.33
2019-04-26T20:16:18.717Z,57.32
2019-04-26T20:18:48.782Z,57.14
2019-04-26T20:21:18.837Z,57.30
2019-04-26T20:23:52.159Z,56.81
2019-04-26T20:26:22.570Z,56.21
2019-04-26T20:28:52.718Z,55.83
2019-04-26T20:31:47.610Z,54.51
2019-04-26T20:34:18.426Z,54.48
2019-04-26T20:36:48.624Z,54.54
2019-04-26T20:39:20.955Z,54.41
2019-04-26T20:42:00.983Z,54.39
2019-04-26T20:44:28.390Z,54.38
2019-04-26T20:46:55.429Z,54.61
2019-04-26T20:49:25.514Z,54.25
2019-04-26T20:51:55.531Z,54.56
2019-04-26T20:54:25.575Z,54.85
2019-04-26T20:56:55.719Z,55.26
2019-04-26T20:59:25.877Z,55.20
2019-04-26T21:02:07.367Z,55.60
2019-04-26T21:04:37.146Z,55.70
2019-04-26T21:06:59.670Z,55.83
2019-04-26T21:09:29.733Z,55.48
2019-04-26T21:11:59.832Z,55.39
2019-04-26T21:14:31.517Z,55.24
2019-04-26T21:17:01.630Z,55.24
2019-04-26T21:19:32.836Z,54.86
2019-04-26T21:22:03.009Z,54.95
2019-04-26T21:24:36.839Z,54.51
2019-04-26T21:27:25.903Z,54.36
2019-04-26T21:30:24.329Z,53.57
2019-04-26T21:33:16.923Z,52.78
2019-04-26T21:36:06.020Z,53.13
2019-04-26T21:38:48.065Z,53.62
2019-04-26T21:41:20.647Z,53.66
2019-04-26T21:43:50.691Z,52.97
2019-04-26T21:46:20.711Z,52.59
2019-04-26T21:48:50.927Z,52.79
2019-04-26T21:51:22.964Z,51.41
2019-04-26T21:53:53.175Z,51.31
2019-04-26T21:56:24.166Z,51.76
2019-04-26T21:58:54.259Z,51.61
2019-04-26T22:01:25.250Z,51.54
2019-04-26T22:03:58.424Z,51.17
2019-04-26T22:06:28.863Z,51.49
2019-04-26T22:09:05.293Z,51.86
2019-04-26T22:11:36.898Z,51.95
2019-04-26T22:14:21.636Z,52.14
2019-04-26T22:17:05.347Z,52.09
2019-04-26T22:19:48.282Z,52.93
2019-04-26T22:22:37.559Z,53.55
2019-04-26T22:25:06.278Z,51.94
2019-04-26T22:27:36.333Z,50.50
2019-04-26T22:30:09.871Z,50.62
2019-04-26T22:32:39.922Z,50.98
2019-04-26T22:35:13.401Z,51.58
2019-04-26T22:37:45.599Z,51.95
2019-04-26T22:40:16.986Z,52.06
2019-04-26T22:42:47.301Z,51.56
2019-04-26T22:45:27.864Z,51.69
2019-04-26T22:48:04.698Z,51.36
2019-04-26T22:50:34.790Z,50.31
2019-04-26T22:53:04.867Z,50.25
2019-04-26T22:55:34.951Z,50.68
2019-04-26T22:58:05.162Z,50.96
2019-04-26T23:00:39.051Z,50.90
2019-04-26T23:03:09.284Z,50.23
2019-04-26T23:05:39.339Z,49.97
2019-04-26T23:08:09.500Z,50.83
2019-04-26T23:10:45.286Z,50.40
2019-04-26T23:13:37.754Z,50.48
2019-04-26T23:16:33.525Z,50.24
2019-04-26T23:19:15.219Z,49.45
2019-04-26T23:21:52.817Z,48.94
2019-04-26T23:24:18.921Z,49.05
2019-04-26T23:26:49.166Z,49.21
2019-04-26T23:29:19.249Z,48.58
2019-04-26T23:31:50.344Z,49.22
2019-04-26T23:34:20.430Z,48.79
2019-04-26T23:36:50.526Z,48.64
2019-04-26T23:39:20.615Z,48.67
2019-04-26T23:41:50.645Z,49.09
2019-04-26T23:44:20.691Z,49.59
2019-04-26T23:46:54.929Z,49.14
2019-04-26T23:49:25.326Z,49.33
2019-04-26T23:51:55.497Z,49.60
2019-04-26T23:54:28.185Z,49.68
2019-04-26T23:56:58.726Z,50.10
2019-04-26T23:59:29.027Z,50.50
